Time;durP1;ratioP1;P1;durP2;ratioP2;P2;SDS_P1;SDS_P2;PMS_P1;PMS_P2;Temp;Humidity;BMP_temperature;BMP_pressure;BME280_temperature;BME280_humidity;BME280_pressure;Samples;Min_cycle;Max_cycle;Signal;HPM_P1;HPM_P2
2024/01/17 00:01:15;;;;;;;52.28;21.70;;;-0.40;99.90;;;;;;5061680;28;20029;-69
2024/01/17 00:03:40;;;;;;;36.80;17.75;;;-0.40;99.90;;;;;;5061784;28;20079;-68
2024/01/17 00:06:06;;;;;;;50.88;21.52;;;-0.40;99.90;;;;;;5061948;28;20045;-68
2024/01/17 00:08:32;;;;;;;38.17;18.90;;;-0.30;99.90;;;;;;5061572;28;20055;-69
2024/01/17 00:10:57;;;;;;;42.58;19.50;;;-0.30;99.90;;;;;;5061694;28;20066;-68
2024/01/17 00:13:23;;;;;;;42.30;19.98;;;-0.30;99.90;;;;;;5061047;28;20055;-68
2024/01/17 00:15:49;;;;;;;50.35;21.40;;;-0.30;99.90;;;;;;5061655;28;20017;-69
2024/01/17 00:18:14;;;;;;;42.65;20.98;;;-0.30;99.90;;;;;;5061592;28;20442;-69
2024/01/17 00:20:40;;;;;;;48.38;20.67;;;-0.30;99.90;;;;;;5061363;28;20025;-69
2024/01/17 00:23:06;;;;;;;48.25;20.08;;;-0.30;99.90;;;;;;5061688;28;20025;-69
2024/01/17 00:25:32;;;;;;;41.00;19.48;;;-0.30;99.90;;;;;;5061656;28;20048;-70
2024/01/17 00:27:57;;;;;;;48.25;20.83;;;-0.30;99.90;;;;;;5061248;28;20553;-69
2024/01/17 00:30:23;;;;;;;53.83;20.75;;;-0.30;99.90;;;;;;5061714;28;20043;-69
2024/01/17 00:32:48;;;;;;;42.10;19.23;;;-0.30;99.90;;;;;;5061506;28;20035;-69
2024/01/17 00:35:14;;;;;;;46.78;20.20;;;-0.30;99.90;;;;;;5061338;28;20021;-69
2024/01/17 00:37:40;;;;;;;40.47;16.95;;;-0.30;99.90;;;;;;5061508;28;20032;-69
2024/01/17 00:40:06;;;;;;;46.17;19.25;;;-0.40;99.90;;;;;;5061707;28;20036;-70
2024/01/17 00:42:31;;;;;;;38.75;16.92;;;-0.40;99.90;;;;;;5061332;28;20504;-69
2024/01/17 00:44:57;;;;;;;45.22;19.38;;;-0.40;99.90;;;;;;5060114;28;20045;-69
2024/01/17 00:47:23;;;;;;;40.47;20.02;;;-0.40;99.90;;;;;;5061534;28;20432;-70
2024/01/17 00:49:48;;;;;;;31.85;13.88;;;-0.40;99.90;;;;;;5058429;28;20026;-69
2024/01/17 00:52:14;;;;;;;40.92;18.70;;;-0.40;99.90;;;;;;5060493;28;20045;-70
2024/01/17 00:54:39;;;;;;;40.50;18.08;;;-0.50;99.90;;;;;;5059845;28;20037;-69
2024/01/17 00:57:08;;;;;;;42.10;19.13;;;-0.50;99.90;;;;;;5059095;28;20033;-70
2024/01/17 00:59:34;;;;;;;42.22;18.40;;;-0.50;99.90;;;;;;5061263;28;20056;-69
2024/01/17 01:02:01;;;;;;;43.28;18.17;;;-0.50;99.90;;;;;;5060921;28;20053;-70
2024/01/17 01:04:28;;;;;;;39.15;15.18;;;-0.60;99.90;;;;;;5060706;28;20541;-70
2024/01/17 01:06:53;;;;;;;35.53;18.13;;;-0.60;99.90;;;;;;5061203;28;20143;-70
2024/01/17 01:09:19;;;;;;;36.42;15.38;;;-0.60;99.90;;;;;;5060845;28;20067;-69
2024/01/17 01:11:44;;;;;;;35.70;16.70;;;-0.60;99.90;;;;;;5061225;28;20017;-69
2024/01/17 01:14:10;;;;;;;32.90;14.48;;;-0.60;99.90;;;;;;5059721;28;20708;-70
2024/01/17 01:16:35;;;;;;;35.25;16.48;;;-0.70;99.90;;;;;;5060801;28;20037;-70
2024/01/17 01:19:01;;;;;;;35.75;16.52;;;-0.70;99.90;;;;;;5061318;28;20085;-70
2024/01/17 01:21:26;;;;;;;39.55;18.42;;;-0.70;99.90;;;;;;5061160;28;20033;-69
2024/01/17 01:23:52;;;;;;;49.92;19.42;;;-0.70;99.90;;;;;;5060565;28;20040;-69
2024/01/17 01:26:17;;;;;;;42.50;18.90;;;-0.80;99.90;;;;;;5064410;28;20037;-69
2024/01/17 01:28:43;;;;;;;39.88;18.50;;;-0.80;99.90;;;;;;5064598;28;20032;-70
2024/01/17 01:31:09;;;;;;;32.78;14.85;;;-0.80;99.90;;;;;;5064398;28;20021;-70
2024/01/17 01:33:35;;;;;;;41.13;17.42;;;-0.80;99.90;;;;;;5064997;28;20017;-70
2024/01/17 01:36:00;;;;;;;43.08;18.75;;;-0.80;99.90;;;;;;5064709;28;20048;-70
2024/01/17 01:38:26;;;;;;;44.95;19.02;;;-0.80;99.90;;;;;;5064699;28;20057;-69
2024/01/17 01:40:51;;;;;;;31.10;14.38;;;-0.80;99.90;;;;;;5064406;28;20458;-70
2024/01/17 01:43:24;;;;;;;41.95;18.30;;;-0.80;99.90;;;;;;5064435;28;20028;-69
2024/01/17 01:46:11;;;;;;;39.67;18.67;;;-0.80;99.90;;;;;;5064214;28;20063;-70
2024/01/17 01:48:37;;;;;;;38.85;18.10;;;-0.80;99.90;;;;;;5063925;28;20047;-70
2024/01/17 01:51:04;;;;;;;38.20;16.98;;;-0.70;99.90;;;;;;5062745;28;20037;-69
2024/01/17 01:53:32;;;;;;;41.28;17.60;;;-0.80;99.90;;;;;;5062306;28;20029;-69
2024/01/17 01:55:58;;;;;;;39.28;17.55;;;-0.70;99.90;;;;;;5064057;28;20033;-70
2024/01/17 01:58:25;;;;;;;35.35;17.13;;;-0.70;99.90;;;;;;5062038;28;20036;-69
2024/01/17 02:00:52;;;;;;;38.47;15.35;;;-0.70;99.90;;;;;;5064099;28;20029;-70
2024/01/17 02:03:19;;;;;;;39.78;17.63;;;-0.70;99.90;;;;;;5064013;28;20033;-70
2024/01/17 02:05:45;;;;;;;53.00;16.15;;;-0.70;99.90;;;;;;5063102;28;20404;-70
2024/01/17 02:08:12;;;;;;;41.47;16.25;;;-0.70;99.90;;;;;;5063878;28;20032;-70
2024/01/17 02:10:38;;;;;;;31.92;15.48;;;-0.60;99.90;;;;;;5063920;28;20433;-70
2024/01/17 02:13:04;;;;;;;36.85;15.77;;;-0.60;99.90;;;;;;5063560;28;20060;-70
2024/01/17 02:15:30;;;;;;;31.58;14.20;;;-0.70;99.90;;;;;;5063948;28;20103;-69
2024/01/17 02:17:55;;;;;;;40.20;17.10;;;-0.70;99.90;;;;;;5062142;28;20028;-70
2024/01/17 02:20:21;;;;;;;45.58;19.67;;;-0.70;99.90;;;;;;5062223;28;20160;-69
2024/01/17 02:22:47;;;;;;;39.40;17.95;;;-0.70;99.90;;;;;;5063640;28;20036;-69
2024/01/17 02:25:12;;;;;;;39.17;18.02;;;-0.70;99.90;;;;;;5063359;28;20128;-68
2024/01/17 02:27:38;;;;;;;31.60;15.30;;;-0.70;99.90;;;;;;5062037;28;20083;-70
2024/01/17 02:30:06;;;;;;;40.72;18.42;;;-0.70;99.90;;;;;;5063757;28;20032;-69
2024/01/17 02:32:36;;;;;;;45.03;19.75;;;-0.70;99.90;;;;;;5062953;28;20367;-69
2024/01/17 02:35:02;;;;;;;38.88;18.52;;;-0.70;99.90;;;;;;5063335;28;20021;-70
2024/01/17 02:37:28;;;;;;;23.52;10.80;;;-0.70;99.90;;;;;;5063966;28;20071;-68
2024/01/17 02:39:54;;;;;;;42.88;18.58;;;-0.70;99.90;;;;;;5061815;28;20473;-69
2024/01/17 02:42:20;;;;;;;41.10;18.65;;;-0.70;99.90;;;;;;5063517;28;20033;-69
2024/01/17 02:44:45;;;;;;;42.20;19.05;;;-0.70;99.90;;;;;;5063648;28;20045;-69
2024/01/17 02:47:11;;;;;;;32.40;16.45;;;-0.70;99.90;;;;;;5061904;28;20036;-69
2024/01/17 02:49:36;;;;;;;38.75;18.90;;;-0.70;99.90;;;;;;5063186;28;20375;-70
2024/01/17 02:52:02;;;;;;;31.58;15.18;;;-0.80;99.90;;;;;;5063412;28;20025;-70
2024/01/17 02:54:28;;;;;;;39.42;17.23;;;-0.80;99.90;;;;;;5062892;28;21373;-70
2024/01/17 02:56:54;;;;;;;43.05;21.20;;;-0.80;99.90;;;;;;5063107;28;20029;-68
2024/01/17 02:59:19;;;;;;;40.65;17.73;;;-0.80;99.90;;;;;;5062479;28;20025;-68
2024/01/17 03:01:46;;;;;;;45.60;20.95;;;-0.80;99.90;;;;;;5062516;28;20081;-71
2024/01/17 03:04:12;;;;;;;42.80;19.77;;;-0.80;99.90;;;;;;5062667;28;20041;-70
2024/01/17 03:06:40;;;;;;;27.80;11.80;;;-0.80;99.90;;;;;;5062879;28;20441;-69
2024/01/17 03:09:05;;;;;;;39.33;19.38;;;-0.90;99.90;;;;;;5060943;28;20034;-70
2024/01/17 03:11:31;;;;;;;47.28;19.45;;;-0.80;99.90;;;;;;5062996;28;20109;-69
2024/01/17 03:13:56;;;;;;;39.08;15.68;;;-0.90;99.90;;;;;;5062504;28;20043;-69
2024/01/17 03:16:22;;;;;;;43.92;19.73;;;-0.90;99.90;;;;;;5062345;28;20024;-69
2024/01/17 03:18:48;;;;;;;38.30;19.00;;;-0.90;99.90;;;;;;5062620;28;20474;-69
2024/01/17 03:21:14;;;;;;;43.08;19.90;;;-0.90;99.90;;;;;;5062156;28;20076;-69
2024/01/17 03:23:40;;;;;;;35.13;18.75;;;-0.80;99.90;;;;;;5062340;28;20017;-68
2024/01/17 03:26:05;;;;;;;35.13;18.10;;;-0.80;99.90;;;;;;5061876;28;20043;-68
2024/01/17 03:28:31;;;;;;;36.45;19.33;;;-0.80;99.90;;;;;;5062113;28;20040;-68
2024/01/17 03:30:56;;;;;;;47.92;19.52;;;-0.80;99.90;;;;;;5062466;28;20100;-70
2024/01/17 03:33:22;;;;;;;36.95;19.10;;;-0.70;99.90;;;;;;5059804;28;20414;-70
2024/01/17 03:35:48;;;;;;;42.80;18.13;;;-0.80;99.90;;;;;;5061666;28;20029;-71
2024/01/17 03:38:13;;;;;;;31.45;14.82;;;-0.70;99.90;;;;;;5060937;28;20048;-69
2024/01/17 03:40:39;;;;;;;43.40;18.83;;;-0.70;99.90;;;;;;5062069;28;20021;-69
2024/01/17 03:43:06;;;;;;;44.03;18.95;;;-0.70;99.90;;;;;;5061986;28;20029;-69
2024/01/17 03:45:33;;;;;;;46.47;19.65;;;-0.70;99.90;;;;;;5061744;28;20037;-70
2024/01/17 03:47:58;;;;;;;36.65;16.83;;;-0.70;99.90;;;;;;5061612;28;20033;-70
2024/01/17 03:50:24;;;;;;;50.60;20.23;;;-0.70;99.90;;;;;;5060571;28;20035;-70
2024/01/17 03:52:50;;;;;;;39.88;20.17;;;-0.70;99.90;;;;;;5061839;28;20067;-70
2024/01/17 03:55:15;;;;;;;40.35;18.88;;;-0.70;99.90;;;;;;5061848;28;20036;-69
2024/01/17 03:57:41;;;;;;;39.33;17.13;;;-0.70;99.90;;;;;;5061413;28;20083;-70
2024/01/17 04:00:07;;;;;;;44.42;20.55;;;-0.70;99.90;;;;;;5061872;28;20029;-71
2024/01/17 04:02:35;;;;;;;42.72;19.05;;;-0.70;99.90;;;;;;5061531;28;20028;-71
2024/01/17 04:05:01;;;;;;;42.53;19.38;;;-0.70;99.90;;;;;;5060768;28;20045;-71
2024/01/17 04:07:28;;;;;;;43.42;21.30;;;-0.70;99.90;;;;;;5061612;28;20052;-69
2024/01/17 04:09:54;;;;;;;52.17;21.95;;;-0.60;99.90;;;;;;5061474;28;20095;-69
2024/01/17 04:12:20;;;;;;;46.28;21.63;;;-0.60;99.90;;;;;;5060119;28;20017;-69
2024/01/17 04:14:46;;;;;;;45.97;22.67;;;-0.60;99.90;;;;;;5061552;28;20135;-69
2024/01/17 04:17:12;;;;;;;39.40;19.45;;;-0.60;99.90;;;;;;5061098;28;20032;-71
2024/01/17 04:19:37;;;;;;;41.85;19.67;;;-0.60;99.90;;;;;;5061607;28;20091;-70
2024/01/17 04:22:03;;;;;;;38.83;18.75;;;-0.60;99.90;;;;;;5061791;28;20131;-70
2024/01/17 04:24:29;;;;;;;37.85;18.98;;;-0.60;99.90;;;;;;5061370;28;20024;-69
2024/01/17 04:26:56;;;;;;;36.70;18.48;;;-0.60;99.90;;;;;;5061460;28;20037;-70
2024/01/17 04:29:23;;;;;;;41.03;19.40;;;-0.60;99.90;;;;;;5061525;28;20029;-69
2024/01/17 04:31:49;;;;;;;39.90;18.75;;;-0.60;99.90;;;;;;5059260;28;20067;-69
2024/01/17 04:34:15;;;;;;;35.17;15.35;;;-0.60;99.90;;;;;;5061243;28;20028;-72
2024/01/17 04:36:41;;;;;;;28.77;14.13;;;-0.60;99.90;;;;;;5059749;28;20036;-70
2024/01/17 04:39:08;;;;;;;38.30;16.20;;;-0.60;99.90;;;;;;5060280;28;20045;-71
2024/01/17 04:41:33;;;;;;;40.83;18.88;;;-0.60;99.90;;;;;;5060242;28;20021;-70
2024/01/17 04:44:00;;;;;;;37.08;18.77;;;-0.60;99.90;;;;;;5058977;28;20021;-71
2024/01/17 04:46:27;;;;;;;39.42;19.73;;;-0.60;99.90;;;;;;5051974;28;20033;-70
2024/01/17 04:48:52;;;;;;;40.13;18.45;;;-0.60;99.90;;;;;;5058376;28;20029;-71
2024/01/17 04:51:21;;;;;;;32.22;15.77;;;-0.60;99.90;;;;;;5059896;28;20043;-69
2024/01/17 04:53:47;;;;;;;40.42;19.65;;;-0.60;99.90;;;;;;5060280;28;20049;-69
2024/01/17 04:56:14;;;;;;;34.67;17.98;;;-0.60;99.90;;;;;;5059229;28;20036;-68
2024/01/17 04:58:41;;;;;;;38.22;18.10;;;-0.60;99.90;;;;;;5061944;28;20029;-71
2024/01/17 05:01:07;;;;;;;36.40;18.02;;;-0.60;99.90;;;;;;5063669;28;20029;-69
2024/01/17 05:03:33;;;;;;;40.25;18.58;;;-0.60;99.90;;;;;;5063625;28;20029;-70
2024/01/17 05:05:59;;;;;;;41.17;19.25;;;-0.60;99.90;;;;;;5063048;28;20069;-69
2024/01/17 05:08:25;;;;;;;32.55;17.05;;;-0.60;99.90;;;;;;5057961;28;20089;-70
2024/01/17 05:10:51;;;;;;;41.70;18.95;;;-0.60;99.90;;;;;;5059492;28;20044;-70
2024/01/17 05:13:16;;;;;;;30.92;15.68;;;-0.60;99.90;;;;;;5063778;28;20036;-69
2024/01/17 05:15:42;;;;;;;37.63;18.10;;;-0.60;99.90;;;;;;5064468;28;20029;-70
2024/01/17 05:18:11;;;;;;;37.05;17.75;;;-0.60;99.90;;;;;;5064358;28;20037;-69
2024/01/17 05:20:38;;;;;;;37.90;16.92;;;-0.60;99.90;;;;;;5062061;28;20468;-70
2024/01/17 05:23:04;;;;;;;31.27;13.20;;;-0.60;99.90;;;;;;5062230;28;20136;-70
2024/01/17 05:25:30;;;;;;;38.47;17.08;;;-0.60;99.90;;;;;;5063276;28;20073;-70
2024/01/17 05:27:56;;;;;;;29.73;14.65;;;-0.60;99.90;;;;;;5063952;28;20078;-69
2024/01/17 05:30:25;;;;;;;27.80;12.75;;;-0.60;99.90;;;;;;5060886;28;20046;-69
2024/01/17 05:32:52;;;;;;;31.48;16.23;;;-0.60;99.90;;;;;;5062539;28;20009;-68
2024/01/17 05:35:18;;;;;;;26.73;13.32;;;-0.70;99.90;;;;;;5056661;28;20025;-70
2024/01/17 05:37:44;;;;;;;32.67;15.75;;;-0.70;99.90;;;;;;5060750;28;20076;-70
2024/01/17 05:40:12;;;;;;;30.80;15.70;;;-0.70;99.90;;;;;;5063444;28;20040;-69
2024/01/17 05:42:39;;;;;;;50.58;20.88;;;-0.70;99.90;;;;;;5062624;28;20452;-70
2024/01/17 05:45:05;;;;;;;33.78;14.85;;;-0.70;99.90;;;;;;5064432;28;20077;-70
2024/01/17 05:47:31;;;;;;;38.60;14.85;;;-0.70;99.90;;;;;;5064702;28;20048;-70
2024/01/17 05:49:57;;;;;;;27.45;13.90;;;-0.70;99.90;;;;;;5062662;28;20032;-69
2024/01/17 05:52:26;;;;;;;39.53;15.65;;;-0.70;99.90;;;;;;5064530;28;20029;-68
2024/01/17 05:54:51;;;;;;;39.83;16.23;;;-0.70;99.90;;;;;;5063111;28;20024;-70
2024/01/17 05:57:17;;;;;;;27.02;10.52;;;-0.70;99.90;;;;;;5061542;28;20044;-69
2024/01/17 05:59:43;;;;;;;24.30;11.60;;;-0.80;99.90;;;;;;5059436;28;20068;-68
2024/01/17 06:02:08;;;;;;;26.67;12.80;;;-0.80;99.90;;;;;;5060152;28;20025;-70
2024/01/17 06:04:34;;;;;;;43.17;16.27;;;-0.70;99.90;;;;;;5060612;28;20045;-70
2024/01/17 06:07:03;;;;;;;45.45;18.55;;;-0.80;99.90;;;;;;5061078;28;20033;-70
2024/01/17 06:09:28;;;;;;;30.15;14.13;;;-0.80;99.90;;;;;;5063145;28;20025;-69
2024/01/17 06:11:55;;;;;;;39.92;16.55;;;-0.80;99.90;;;;;;5062405;28;20017;-68
2024/01/17 06:14:20;;;;;;;31.88;13.35;;;-0.80;99.90;;;;;;5062886;28;20025;-70
2024/01/17 06:16:47;;;;;;;32.53;16.13;;;-0.80;99.90;;;;;;5055439;28;20021;-69
2024/01/17 06:19:14;;;;;;;32.50;15.05;;;-0.80;99.90;;;;;;5060537;28;20025;-70
2024/01/17 06:21:40;;;;;;;25.55;13.00;;;-0.80;99.90;;;;;;5062943;28;20085;-70
2024/01/17 06:24:05;;;;;;;32.33;15.55;;;-0.80;99.90;;;;;;5062726;28;20028;-68
2024/01/17 06:26:31;;;;;;;36.50;15.32;;;-0.80;99.90;;;;;;5064201;28;20053;-69
2024/01/17 06:28:57;;;;;;;28.85;11.88;;;-0.80;99.90;;;;;;5063827;28;20025;-70
2024/01/17 06:31:24;;;;;;;30.30;14.20;;;-0.80;99.90;;;;;;5061939;28;20021;-68
2024/01/17 06:33:51;;;;;;;30.60;14.40;;;-0.80;99.90;;;;;;5055928;28;20047;-69
2024/01/17 06:36:17;;;;;;;27.13;10.88;;;-0.80;99.90;;;;;;5057370;28;20033;-69
2024/01/17 06:38:43;;;;;;;36.90;13.55;;;-0.80;99.90;;;;;;5063616;28;20024;-70
2024/01/17 06:41:09;;;;;;;30.20;13.45;;;-0.80;99.90;;;;;;5061688;28;20020;-70
2024/01/17 06:43:34;;;;;;;26.67;13.93;;;-0.90;99.90;;;;;;5060525;28;20059;-70
2024/01/17 06:46:00;;;;;;;33.20;15.13;;;-0.90;99.90;;;;;;5062218;28;20037;-69
2024/01/17 06:48:25;;;;;;;32.53;14.48;;;-0.90;99.90;;;;;;5061061;28;20021;-69
2024/01/17 06:50:51;;;;;;;31.42;11.50;;;-0.80;99.90;;;;;;5059653;28;20062;-68
2024/01/17 06:53:17;;;;;;;23.80;12.25;;;-0.80;99.90;;;;;;5058582;28;20033;-69
2024/01/17 06:55:43;;;;;;;30.63;12.90;;;-0.90;99.90;;;;;;5061885;28;20027;-69
2024/01/17 06:58:10;;;;;;;32.53;14.65;;;-0.90;99.90;;;;;;5060308;28;20457;-69
2024/01/17 07:00:35;;;;;;;35.00;14.18;;;-0.90;99.90;;;;;;5063007;28;20032;-71
2024/01/17 07:03:01;;;;;;;22.33;11.80;;;-0.90;99.90;;;;;;5061260;28;20021;-69
2024/01/17 07:05:27;;;;;;;30.55;13.63;;;-0.90;99.90;;;;;;5062205;28;20045;-68
2024/01/17 07:07:53;;;;;;;27.63;12.63;;;-0.90;99.90;;;;;;5061947;28;20025;-69
2024/01/17 07:10:19;;;;;;;29.40;12.35;;;-0.90;99.90;;;;;;5060333;28;20071;-69
2024/01/17 07:12:44;;;;;;;34.80;13.75;;;-0.90;99.90;;;;;;5059989;28;20034;-69
2024/01/17 07:15:10;;;;;;;29.10;14.75;;;-0.90;99.90;;;;;;5060028;28;20029;-69
2024/01/17 07:17:37;;;;;;;28.67;9.57;;;-0.90;99.90;;;;;;5062666;28;20513;-70
2024/01/17 07:20:04;;;;;;;33.45;15.15;;;-1.00;99.90;;;;;;5060587;28;20488;-69
2024/01/17 07:22:30;;;;;;;35.95;13.77;;;-1.00;99.90;;;;;;5060133;28;20029;-69
2024/01/17 07:24:56;;;;;;;30.75;12.75;;;-1.00;99.90;;;;;;5057996;28;20029;-70
2024/01/17 07:27:21;;;;;;;26.60;13.40;;;-1.00;99.90;;;;;;5056026;28;20107;-69
2024/01/17 07:29:47;;;;;;;24.30;12.63;;;-1.00;99.90;;;;;;5056697;28;20025;-69
2024/01/17 07:32:13;;;;;;;23.52;11.15;;;-1.00;99.90;;;;;;5056608;28;20064;-70
2024/01/17 07:34:39;;;;;;;28.73;12.70;;;-1.00;99.90;;;;;;5056482;28;20489;-69
2024/01/17 07:37:04;;;;;;;27.85;11.30;;;-1.00;99.90;;;;;;5056492;28;20021;-69
2024/01/17 07:39:30;;;;;;;30.38;12.45;;;-1.00;99.90;;;;;;5058028;28;20106;-69
2024/01/17 07:41:56;;;;;;;31.67;13.45;;;-1.00;99.90;;;;;;5059720;28;20068;-70
2024/01/17 07:44:26;;;;;;;28.55;11.15;;;-1.10;99.90;;;;;;5056770;28;20064;-69
2024/01/17 07:46:53;;;;;;;32.00;12.73;;;-1.10;99.90;;;;;;5061267;28;20116;-69
2024/01/17 07:49:19;;;;;;;31.38;14.00;;;-1.10;99.90;;;;;;5061778;28;20025;-69
2024/01/17 07:51:45;;;;;;;26.52;11.23;;;-1.10;99.90;;;;;;5062358;28;20049;-68
2024/01/17 07:54:10;;;;;;;34.10;14.15;;;-1.10;99.90;;;;;;5058598;28;20077;-69
2024/01/17 07:56:36;;;;;;;35.55;13.05;;;-1.10;99.90;;;;;;5059647;28;20513;-71
2024/01/17 07:59:01;;;;;;;28.40;10.95;;;-1.10;99.90;;;;;;5057690;28;20021;-70
2024/01/17 08:01:29;;;;;;;29.05;13.32;;;-1.10;99.90;;;;;;5058777;28;20055;-69
2024/01/17 08:03:54;;;;;;;29.40;9.60;;;-1.10;99.90;;;;;;5062008;28;20057;-71
2024/01/17 08:06:20;;;;;;;22.10;10.63;;;-1.10;99.90;;;;;;5058954;28;20059;-70
2024/01/17 08:08:46;;;;;;;29.92;11.23;;;-1.10;99.90;;;;;;5056223;28;20047;-70
2024/01/17 08:11:11;;;;;;;22.70;11.68;;;-1.10;99.90;;;;;;5056686;28;20053;-69
2024/01/17 08:13:37;;;;;;;34.67;13.15;;;-1.10;99.90;;;;;;5056674;28;20029;-71
2024/01/17 08:16:03;;;;;;;24.63;9.88;;;-1.10;99.90;;;;;;5056464;28;20025;-70
2024/01/17 08:18:28;;;;;;;29.92;11.63;;;-1.10;99.90;;;;;;5059706;28;20036;-71
2024/01/17 08:20:54;;;;;;;22.38;8.18;;;-1.10;99.90;;;;;;5061677;28;20425;-69
2024/01/17 08:23:19;;;;;;;27.90;12.38;;;-1.10;99.90;;;;;;5058658;28;20032;-68
2024/01/17 08:25:45;;;;;;;35.05;13.35;;;-1.10;99.90;;;;;;5059457;28;20037;-69
2024/01/17 08:28:10;;;;;;;30.42;12.20;;;-1.10;99.90;;;;;;5058908;28;20075;-70
2024/01/17 08:30:36;;;;;;;25.08;11.48;;;-1.10;99.90;;;;;;5060955;28;20024;-69
2024/01/17 08:33:02;;;;;;;25.45;9.98;;;-1.00;99.90;;;;;;5058423;28;20088;-69
2024/01/17 08:35:27;;;;;;;24.02;11.50;;;-1.00;99.90;;;;;;5060173;28;20121;-69
2024/01/17 08:37:53;;;;;;;23.48;9.60;;;-1.00;99.90;;;;;;5060816;28;20037;-68
2024/01/17 08:40:19;;;;;;;25.38;11.02;;;-1.00;99.90;;;;;;5059295;28;20029;-69
2024/01/17 08:42:44;;;;;;;24.90;11.38;;;-1.00;99.90;;;;;;5062309;28;20025;-70
2024/01/17 08:45:10;;;;;;;28.88;10.90;;;-1.00;99.90;;;;;;5059624;28;20036;-69
2024/01/17 08:47:36;;;;;;;27.23;11.70;;;-0.90;99.90;;;;;;5062049;28;20036;-70
2024/01/17 08:50:02;;;;;;;15.95;7.45;;;-0.90;99.90;;;;;;5062742;28;20052;-70
2024/01/17 08:52:28;;;;;;;14.93;7.50;;;-0.90;99.90;;;;;;5062920;28;20085;-68
2024/01/17 08:54:54;;;;;;;30.95;9.38;;;-0.90;99.90;;;;;;5063448;28;20052;-70
2024/01/17 08:57:20;;;;;;;26.38;11.02;;;-0.80;99.90;;;;;;5057506;28;20028;-69
2024/01/17 08:59:45;;;;;;;21.55;8.90;;;-0.80;99.90;;;;;;5052792;28;20037;-69
2024/01/17 09:02:11;;;;;;;19.13;10.00;;;-0.80;99.90;;;;;;5056576;28;20044;-69
2024/01/17 09:04:36;;;;;;;18.40;7.97;;;-0.80;99.90;;;;;;5058769;28;21342;-71
2024/01/17 09:07:02;;;;;;;16.95;8.95;;;-0.70;99.90;;;;;;5063758;28;20043;-69
2024/01/17 09:09:28;;;;;;;21.65;10.75;;;-0.70;99.90;;;;;;5064964;28;20020;-69
2024/01/17 09:11:53;;;;;;;21.85;9.63;;;-0.70;99.90;;;;;;5064387;28;20066;-71
2024/01/17 09:14:21;;;;;;;21.60;10.20;;;-0.70;99.90;;;;;;5061236;28;20053;-68
2024/01/17 09:16:50;;;;;;;18.45;8.38;;;-0.70;99.90;;;;;;5058137;28;20380;-71
2024/01/17 09:19:15;;;;;;;22.90;9.23;;;-0.70;99.90;;;;;;5063429;28;20036;-70
2024/01/17 09:21:41;;;;;;;14.13;6.63;;;-0.70;99.90;;;;;;5064457;28;20033;-71
2024/01/17 09:24:07;;;;;;;22.10;9.63;;;-0.60;99.90;;;;;;5062933;28;20025;-69
2024/01/17 09:26:32;;;;;;;20.17;9.43;;;-0.60;99.90;;;;;;5063496;28;20076;-71
2024/01/17 09:28:58;;;;;;;21.30;8.98;;;-0.60;99.90;;;;;;5063462;28;20052;-69
2024/01/17 09:31:24;;;;;;;21.58;9.65;;;-0.60;99.90;;;;;;5061634;28;20036;-70
2024/01/17 09:33:49;;;;;;;22.65;9.68;;;-0.60;99.90;;;;;;5064162;28;20036;-69
2024/01/17 09:36:15;;;;;;;28.20;10.95;;;-0.60;99.90;;;;;;5063680;28;20048;-70
2024/01/17 09:38:41;;;;;;;17.38;7.68;;;-0.60;99.90;;;;;;5064363;28;20071;-69
2024/01/17 09:41:07;;;;;;;21.65;8.85;;;-0.60;99.90;;;;;;5064601;28;20052;-69
2024/01/17 09:43:33;;;;;;;27.35;9.85;;;-0.50;99.90;;;;;;5056399;28;20029;-69
2024/01/17 09:46:02;;;;;;;19.13;9.10;;;-0.50;99.90;;;;;;5061804;28;20040;-70
2024/01/17 09:48:29;;;;;;;20.08;9.15;;;-0.50;99.90;;;;;;5061733;28;20586;-71
2024/01/17 09:50:57;;;;;;;21.58;8.60;;;-0.50;99.90;;;;;;5061516;28;20028;-71
2024/01/17 09:53:28;;;;;;;21.38;9.68;;;-0.40;99.90;;;;;;5062406;28;20448;-70
2024/01/17 09:55:59;;;;;;;28.02;11.18;;;-0.40;99.90;;;;;;5056569;28;20168;-70
2024/01/17 09:58:33;;;;;;;25.73;10.68;;;-0.30;99.90;;;;;;5055848;28;20068;-71
2024/01/17 10:01:00;;;;;;;19.13;7.82;;;-0.20;99.90;;;;;;5059989;28;20736;-70
2024/01/17 10:03:28;;;;;;;19.88;8.18;;;-0.10;99.90;;;;;;5061301;28;20166;-69
2024/01/17 10:05:56;;;;;;;28.35;10.38;;;-0.10;99.90;;;;;;5062275;28;20064;-70
2024/01/17 10:08:21;;;;;;;24.75;10.93;;;0.00;99.90;;;;;;5061211;28;20043;-70
2024/01/17 10:10:47;;;;;;;23.02;9.88;;;0.10;99.90;;;;;;5062103;28;20064;-69
2024/01/17 10:13:13;;;;;;;21.95;9.25;;;0.20;99.90;;;;;;5059117;28;20667;-70
2024/01/17 10:15:42;;;;;;;23.05;10.07;;;0.20;99.90;;;;;;5061157;28;20051;-70
2024/01/17 10:18:12;;;;;;;24.95;10.13;;;0.30;99.90;;;;;;5061680;28;20044;-71
2024/01/17 10:20:38;;;;;;;24.73;9.48;;;0.40;99.90;;;;;;5061258;28;20029;-69
2024/01/17 10:23:06;;;;;;;21.23;9.52;;;0.60;99.90;;;;;;5061081;28;20059;-71
2024/01/17 10:25:45;;;;;;;22.20;10.98;;;0.90;99.90;;;;;;5057862;28;20145;-70
2024/01/17 10:28:11;;;;;;;24.40;9.88;;;1.10;99.90;;;;;;5056891;28;20035;-71
2024/01/17 10:30:39;;;;;;;20.17;11.00;;;1.30;99.90;;;;;;5058526;28;20355;-70
2024/01/17 10:33:06;;;;;;;27.25;10.23;;;1.40;99.90;;;;;;5061029;28;20024;-67
2024/01/17 10:35:32;;;;;;;23.67;10.88;;;1.50;99.90;;;;;;5056462;28;20102;-67
2024/01/17 10:37:59;;;;;;;20.02;10.00;;;1.60;99.90;;;;;;5053291;28;20741;-70
2024/01/17 10:40:25;;;;;;;20.63;9.50;;;1.60;99.90;;;;;;5058122;28;20057;-68
2024/01/17 10:43:10;;;;;;;22.40;9.35;;;1.70;99.90;;;;;;5055297;28;20692;-68
2024/01/17 10:45:37;;;;;;;18.40;8.40;;;1.70;99.90;;;;;;5054693;28;21352;-71
2024/01/17 10:48:04;;;;;;;20.23;8.48;;;1.70;99.90;;;;;;5057988;28;20036;-70
2024/01/17 10:50:30;;;;;;;19.25;9.50;;;1.70;99.90;;;;;;5058350;28;20044;-66
2024/01/17 10:53:08;;;;;;;20.60;8.55;;;1.70;99.90;;;;;;5059557;28;20120;-69
2024/01/17 10:55:36;;;;;;;25.15;9.85;;;1.70;99.90;;;;;;5061056;28;20028;-67
2024/01/17 10:58:09;;;;;;;21.67;9.63;;;1.70;99.90;;;;;;5062365;28;20032;-69
2024/01/17 11:00:40;;;;;;;18.92;8.65;;;1.70;99.90;;;;;;5058287;28;20110;-66
2024/01/17 11:03:14;;;;;;;18.65;8.70;;;1.60;99.90;;;;;;5059218;28;20041;-68
2024/01/17 11:05:48;;;;;;;29.27;9.70;;;1.60;99.90;;;;;;5058608;28;20081;-67
2024/01/17 11:08:21;;;;;;;18.02;8.88;;;1.60;99.90;;;;;;5061557;28;20528;-70
2024/01/17 11:10:48;;;;;;;21.55;9.27;;;1.40;99.90;;;;;;5061619;28;20021;-68
2024/01/17 11:13:17;;;;;;;21.98;9.48;;;1.20;99.90;;;;;;5061615;28;20037;-68
2024/01/17 11:15:44;;;;;;;22.23;8.82;;;1.20;99.90;;;;;;5061187;28;20033;-69
2024/01/17 11:18:11;;;;;;;19.92;9.32;;;1.10;99.90;;;;;;5061118;28;20021;-69
2024/01/17 11:20:40;;;;;;;24.25;9.30;;;1.10;99.90;;;;;;5061724;28;20029;-70
2024/01/17 11:23:20;;;;;;;21.77;9.73;;;1.10;99.90;;;;;;5058552;28;20051;-69
2024/01/17 11:26:05;;;;;;;22.95;10.20;;;1.00;99.90;;;;;;5056134;28;20068;-67
2024/01/17 11:28:38;;;;;;;20.10;9.05;;;1.10;99.90;;;;;;5059497;28;20029;-67
2024/01/17 11:31:38;;;;;;;18.75;8.52;;;1.10;99.90;;;;;;5061062;28;20017;-69
2024/01/17 11:34:04;;;;;;;23.55;10.15;;;1.10;99.90;;;;;;5068875;28;20438;-67
2024/01/17 11:36:39;;;;;;;16.08;7.20;;;1.20;99.90;;;;;;5061451;28;20013;-68
2024/01/17 11:39:06;;;;;;;20.55;9.20;;;1.20;99.90;;;;;;5061221;28;20080;-68
2024/01/17 11:41:33;;;;;;;24.95;9.95;;;1.20;99.90;;;;;;5061995;28;20051;-69
2024/01/17 11:43:59;;;;;;;23.00;10.25;;;1.20;99.90;;;;;;5059877;28;20477;-69
2024/01/17 11:46:25;;;;;;;20.70;8.90;;;1.20;99.90;;;;;;5061599;28;20033;-70
2024/01/17 11:48:52;;;;;;;24.20;10.63;;;1.30;99.90;;;;;;5055410;28;20017;-68
2024/01/17 11:51:25;;;;;;;21.65;10.18;;;1.30;99.90;;;;;;5059283;28;20131;-69
2024/01/17 11:53:53;;;;;;;23.67;9.70;;;1.40;99.90;;;;;;5058136;28;20132;-69
2024/01/17 11:56:20;;;;;;;24.40;10.35;;;1.40;99.90;;;;;;5060061;28;20036;-68
2024/01/17 11:58:45;;;;;;;21.40;8.95;;;1.40;99.90;;;;;;5060507;28;20029;-66
2024/01/17 12:01:21;;;;;;;28.98;9.98;;;1.40;99.90;;;;;;5052950;28;20025;-69
2024/01/17 12:03:47;;;;;;;27.55;10.05;;;1.50;99.90;;;;;;5056791;28;20052;-66
2024/01/17 12:06:14;;;;;;;24.08;10.32;;;1.50;99.90;;;;;;5060204;28;20044;-66
2024/01/17 12:08:40;;;;;;;24.35;9.50;;;1.50;99.90;;;;;;5058695;28;20025;-67
2024/01/17 12:11:06;;;;;;;26.05;10.57;;;1.50;99.90;;;;;;5058184;28;20028;-68
2024/01/17 12:13:34;;;;;;;28.38;11.75;;;1.50;99.90;;;;;;5059773;28;20108;-68
2024/01/17 12:16:00;;;;;;;23.65;10.57;;;1.50;99.90;;;;;;5058615;28;20040;-67
2024/01/17 12:18:26;;;;;;;19.63;9.32;;;1.50;99.90;;;;;;5058894;28;20044;-69
2024/01/17 12:20:56;;;;;;;27.27;10.43;;;1.50;99.90;;;;;;5059454;28;20017;-67
2024/01/17 12:23:24;;;;;;;25.55;11.05;;;1.40;99.90;;;;;;5054044;28;20537;-69
2024/01/17 12:25:52;;;;;;;22.23;10.35;;;1.40;99.90;;;;;;5056753;28;20083;-68
2024/01/17 12:28:24;;;;;;;24.92;11.15;;;1.40;99.90;;;;;;5058986;28;20074;-68